createdAt,value
2019-03-03T00:02:50.772Z,8.05
2019-03-03T00:07:59.479Z,7.97
2019-03-03T00:13:06.802Z,8.02
2019-03-03T00:18:13.286Z,8.03
2019-03-03T00:23:21.255Z,8.19
2019-03-03T00:28:33.857Z,7.89
2019-03-03T00:33:40.116Z,8.00
2019-03-03T00:38:47.771Z,7.96
2019-03-03T00:44:01.977Z,7.94
2019-03-03T00:49:11.678Z,7.86
2019-03-03T00:54:25.591Z,7.83
2019-03-03T00:59:45.510Z,8.26
2019-03-03T01:04:54.685Z,8.30
2019-03-03T01:10:08.702Z,8.30
2019-03-03T01:15:20.301Z,8.45
2019-03-03T01:20:33.946Z,8.49
2019-03-03T01:25:40.592Z,8.38
2019-03-03T01:30:46.720Z,8.56
2019-03-03T01:35:54.690Z,8.57
2019-03-03T01:41:01.823Z,8.21
2019-03-03T01:46:11.663Z,8.54
2019-03-03T01:51:16.164Z,8.31
2019-03-03T01:56:22.284Z,8.33
2019-03-03T02:01:29.684Z,8.47
2019-03-03T02:06:37.830Z,8.29
2019-03-03T02:11:49.223Z,8.21
2019-03-03T02:16:56.805Z,8.39
2019-03-03T02:22:04.524Z,8.46
2019-03-03T02:27:13.306Z,8.55
2019-03-03T02:32:26.104Z,8.57
2019-03-03T02:37:39.202Z,8.56
2019-03-03T02:42:47.784Z,8.47
2019-03-03T02:47:57.891Z,8.59
2019-03-03T02:53:06.140Z,8.79
2019-03-03T02:58:13.901Z,8.85
2019-03-03T03:03:24.768Z,8.75
2019-03-03T03:08:48.991Z,8.79
2019-03-03T03:14:01.489Z,8.93
2019-03-03T03:19:10.708Z,9.04
2019-03-03T03:24:25.548Z,9.11
2019-03-03T03:29:57.699Z,9.13
2019-03-03T03:35:07.610Z,9.23
2019-03-03T03:40:27.500Z,9.39
2019-03-03T03:45:47.182Z,9.51
2019-03-03T03:51:12.425Z,9.58
2019-03-03T03:56:25.761Z,9.34
2019-03-03T04:01:43.494Z,9.47
2019-03-03T04:07:00.017Z,9.40
2019-03-03T04:12:10.987Z,9.06
2019-03-03T04:17:20.631Z,9.36
2019-03-03T04:22:47.781Z,9.52
2019-03-03T04:27:58.338Z,9.48
2019-03-03T04:33:22.606Z,9.67
2019-03-03T04:38:34.916Z,9.69
2019-03-03T04:43:52.251Z,9.65
2019-03-03T04:49:08.886Z,9.78
2019-03-03T04:54:27.262Z,9.93
2019-03-03T04:59:43.113Z,9.90
2019-03-03T05:05:01.026Z,9.91
2019-03-03T05:10:25.820Z,9.98
2019-03-03T05:15:34.294Z,9.93
2019-03-03T05:20:52.846Z,10.13
2019-03-03T05:26:01.890Z,10.17
2019-03-03T05:31:10.210Z,9.97
2019-03-03T05:36:19.246Z,10.01
2019-03-03T05:41:26.329Z,10.30
2019-03-03T05:46:36.698Z,10.06
2019-03-03T05:51:46.077Z,10.13
2019-03-03T05:56:54.771Z,9.88
2019-03-03T06:02:04.743Z,10.10
2019-03-03T06:07:12.563Z,10.44
2019-03-03T06:12:22.625Z,10.40
2019-03-03T06:17:30.962Z,10.40
2019-03-03T06:22:40.216Z,10.43
2019-03-03T06:27:47.626Z,10.53
2019-03-03T06:32:59.730Z,10.32
2019-03-03T06:38:10.835Z,10.37
2019-03-03T06:43:19.887Z,10.14
2019-03-03T06:48:26.794Z,10.43
2019-03-03T06:53:34.121Z,10.31
2019-03-03T06:58:43.661Z,10.46
2019-03-03T07:03:51.721Z,10.73
2019-03-03T07:08:59.798Z,10.57
2019-03-03T07:14:08.727Z,10.73
2019-03-03T07:19:18.277Z,10.58
2019-03-03T07:24:27.453Z,10.83
2019-03-03T07:29:34.999Z,11.14
2019-03-03T07:34:43.002Z,11.02
2019-03-03T07:39:53.392Z,11.12
2019-03-03T07:45:04.576Z,11.13
2019-03-03T07:50:12.856Z,11.46
2019-03-03T07:55:19.736Z,11.60
2019-03-03T08:00:26.245Z,11.63
2019-03-03T08:05:35.023Z,11.39
2019-03-03T08:10:42.439Z,11.61
2019-03-03T08:15:55.101Z,11.86
2019-03-03T08:21:05.479Z,11.76
2019-03-03T08:26:14.479Z,12.21
2019-03-03T08:31:25.933Z,12.30
2019-03-03T08:36:35.551Z,12.22
2019-03-03T08:41:48.728Z,12.14
2019-03-03T08:46:57.661Z,12.37
2019-03-03T08:52:08.320Z,12.24
2019-03-03T08:57:18.725Z,12.19
2019-03-03T09:02:26.799Z,12.03
2019-03-03T09:07:46.785Z,12.48
2019-03-03T09:13:06.823Z,12.35
2019-03-03T09:18:15.564Z,12.10
2019-03-03T09:23:24.677Z,12.24
2019-03-03T09:28:41.033Z,12.38
2019-03-03T09:33:49.544Z,12.34
2019-03-03T09:39:08.955Z,12.83
2019-03-03T09:44:19.207Z,12.98
2019-03-03T09:49:30.866Z,12.89
2019-03-03T09:54:42.548Z,12.96
2019-03-03T09:59:53.400Z,12.87
2019-03-03T10:05:04.050Z,13.17
2019-03-03T10:10:16.545Z,13.05
2019-03-03T10:15:26.514Z,13.09
2019-03-03T10:20:51.606Z,12.84
2019-03-03T10:25:59.091Z,12.85
2019-03-03T10:31:23.295Z,12.77
2019-03-03T10:36:48.346Z,12.97
2019-03-03T10:42:02.066Z,12.50
2019-03-03T10:47:09.619Z,12.78
2019-03-03T10:52:23.802Z,12.24
2019-03-03T10:57:48.873Z,12.63
2019-03-03T11:03:13.366Z,12.93
2019-03-03T11:08:38.172Z,12.94
2019-03-03T11:13:53.129Z,12.91
2019-03-03T11:19:01.309Z,13.10
2019-03-03T11:24:14.309Z,13.33
2019-03-03T11:29:34.904Z,13.06
2019-03-03T11:34:49.763Z,13.07
2019-03-03T11:40:01.187Z,13.57
2019-03-03T11:45:11.904Z,13.46
2019-03-03T11:50:36.378Z,13.10
2019-03-03T11:55:46.365Z,12.94
2019-03-03T12:00:57.417Z,13.12
2019-03-03T12:06:05.745Z,12.81
2019-03-03T12:11:22.399Z,13.02
2019-03-03T12:16:35.600Z,12.96
2019-03-03T12:21:43.581Z,13.07
2019-03-03T12:27:01.528Z,12.69
2019-03-03T12:32:10.088Z,12.71
2019-03-03T12:37:23.247Z,12.59
2019-03-03T12:42:37.990Z,12.57
2019-03-03T12:47:47.427Z,12.54
2019-03-03T12:53:00.475Z,12.86
2019-03-03T12:58:15.486Z,12.81
2019-03-03T13:03:22.858Z,13.03
2019-03-03T13:08:36.922Z,13.03
2019-03-03T13:13:44.245Z,13.05
2019-03-03T13:19:08.605Z,12.58
2019-03-03T13:24:23.776Z,12.90
2019-03-03T13:29:49.016Z,13.14
2019-03-03T13:35:08.902Z,13.35
2019-03-03T13:40:16.390Z,13.17
2019-03-03T13:45:22.824Z,13.34
2019-03-03T13:50:28.806Z,13.65
2019-03-03T13:55:36.852Z,13.59
2019-03-03T14:00:44.094Z,13.29
2019-03-03T14:05:50.687Z,13.74
2019-03-03T14:10:56.392Z,13.58
2019-03-03T14:16:03.478Z,13.33
2019-03-03T14:21:12.001Z,13.71
2019-03-03T14:26:18.474Z,13.58
2019-03-03T14:31:24.751Z,13.05
2019-03-03T14:36:32.847Z,13.11
2019-03-03T14:41:39.443Z,12.82
2019-03-03T14:46:45.617Z,12.74
2019-03-03T14:51:51.487Z,12.73
2019-03-03T14:56:59.793Z,12.84
2019-03-03T15:02:06.630Z,12.69
2019-03-03T15:07:12.470Z,12.46
2019-03-03T15:12:19.322Z,12.60
2019-03-03T15:17:25.955Z,12.45
2019-03-03T15:22:33.342Z,12.04
2019-03-03T15:27:39.154Z,11.95
2019-03-03T15:32:44.713Z,11.80
2019-03-03T15:37:50.427Z,11.66
2019-03-03T15:42:57.722Z,12.27
2019-03-03T15:48:05.466Z,11.82
2019-03-03T15:53:11.868Z,11.87
2019-03-03T15:58:17.932Z,12.05
2019-03-03T16:03:24.194Z,12.09
2019-03-03T16:08:30.203Z,11.69
2019-03-03T16:13:38.025Z,12.06
2019-03-03T16:18:44.904Z,11.53
2019-03-03T16:23:51.563Z,11.60
2019-03-03T16:28:57.596Z,11.94
2019-03-03T16:34:03.583Z,11.78
2019-03-03T16:39:09.709Z,11.70
2019-03-03T16:44:15.630Z,11.74
2019-03-03T16:49:21.644Z,11.65
2019-03-03T16:54:27.686Z,11.66
2019-03-03T16:59:35.048Z,11.70
2019-03-03T17:04:43.082Z,11.77
2019-03-03T17:09:50.237Z,11.68
2019-03-03T17:14:56.020Z,12.11
2019-03-03T17:20:03.277Z,11.91
2019-03-03T17:25:17.425Z,11.59
2019-03-03T17:30:25.915Z,12.00
2019-03-03T17:35:32.776Z,11.59
2019-03-03T17:40:38.920Z,11.59
2019-03-03T17:45:46.434Z,11.94
2019-03-03T17:50:52.232Z,11.83
2019-03-03T17:55:58.064Z,11.99
2019-03-03T18:01:06.605Z,11.63
2019-03-03T18:06:12.187Z,11.78
2019-03-03T18:11:19.687Z,11.77
2019-03-03T18:16:25.403Z,11.60
2019-03-03T18:21:32.667Z,11.74
2019-03-03T18:26:38.795Z,11.91
2019-03-03T18:31:45.804Z,11.95
2019-03-03T18:36:52.569Z,11.88
2019-03-03T18:41:58.605Z,11.79
2019-03-03T18:47:06.577Z,11.85
2019-03-03T18:52:14.224Z,12.03
2019-03-03T18:57:21.868Z,11.84
2019-03-03T19:02:29.414Z,12.03
2019-03-03T19:07:39.640Z,11.62
2019-03-03T19:12:44.746Z,12.02
2019-03-03T19:17:50.663Z,12.10
2019-03-03T19:22:56.831Z,11.92
2019-03-03T19:28:02.473Z,12.13
2019-03-03T19:33:11.352Z,12.33
2019-03-03T19:38:16.924Z,12.22
2019-03-03T19:43:23.559Z,12.12
2019-03-03T19:48:31.117Z,12.17
2019-03-03T19:53:36.856Z,12.10
2019-03-03T19:58:42.684Z,12.03
2019-03-03T20:03:49.789Z,12.17
2019-03-03T20:08:56.020Z,12.20
2019-03-03T20:14:02.298Z,12.37
2019-03-03T20:19:09.014Z,12.41
2019-03-03T20:24:17.774Z,12.44
2019-03-03T20:29:23.847Z,12.58
2019-03-03T20:34:29.896Z,12.48
2019-03-03T20:39:37.759Z,12.35
2019-03-03T20:44:46.029Z,12.41
2019-03-03T20:49:52.225Z,12.56
2019-03-03T20:54:58.057Z,12.43
2019-03-03T21:00:05.303Z,12.57
2019-03-03T21:05:12.482Z,12.19
2019-03-03T21:10:24.063Z,12.66
2019-03-03T21:15:30.181Z,12.87
2019-03-03T21:20:39.284Z,12.94
2019-03-03T21:25:45.828Z,12.67
2019-03-03T21:30:51.696Z,12.73
2019-03-03T21:35:57.961Z,12.83
2019-03-03T21:41:03.686Z,12.75
2019-03-03T21:46:09.341Z,12.79
2019-03-03T21:51:15.274Z,12.81
2019-03-03T21:56:22.288Z,12.90
2019-03-03T22:01:27.876Z,12.84
2019-03-03T22:06:33.593Z,13.18
2019-03-03T22:11:39.511Z,13.06
2019-03-03T22:16:45.097Z,12.90
2019-03-03T22:21:52.812Z,12.96
2019-03-03T22:27:00.127Z,13.05
2019-03-03T22:32:05.857Z,12.93
2019-03-03T22:37:12.092Z,12.62
2019-03-03T22:42:17.712Z,12.55
2019-03-03T22:47:23.487Z,12.53
2019-03-03T22:52:29.048Z,12.27
2019-03-03T22:57:36.002Z,12.45
2019-03-03T23:02:41.743Z,12.47
2019-03-03T23:07:50.357Z,12.27
2019-03-03T23:12:59.119Z,12.53
2019-03-03T23:18:33.593Z,12.26
2019-03-03T23:23:43.457Z,12.36
2019-03-03T23:28:49.013Z,12.30
2019-03-03T23:33:54.836Z,12.55
2019-03-03T23:39:00.737Z,12.49
2019-03-03T23:44:11.396Z,12.23
2019-03-03T23:49:17.020Z,12.46
2019-03-03T23:54:24.285Z,12.40
2019-03-03T23:59:30.456Z,12.45
